sensor_id;sensor_type;location;lat;lon;timestamp;pressure;altitude;pressure_sealevel;temperature;humidity
30730;BME280;17476;48.458;7.928;2022-09-16T00:00:18;99435.47;;;15.78;98.64
30730;BME280;17476;48.458;7.928;2022-09-16T00:02:45;99441.19;;;15.68;99.57
30730;BME280;17476;48.458;7.928;2022-09-16T00:05:11;99438.19;;;15.65;98.75
30730;BME280;17476;48.458;7.928;2022-09-16T00:07:38;99439.03;;;15.45;99.15
30730;BME280;17476;48.458;7.928;2022-09-16T00:10:05;99432.97;;;15.38;100.00
30730;BME280;17476;48.458;7.928;2022-09-16T00:12:31;99435.56;;;15.51;100.00
30730;BME280;17476;48.458;7.928;2022-09-16T00:14:57;99434.31;;;15.67;99.69
30730;BME280;17476;48.458;7.928;2022-09-16T00:17:23;99431.69;;;15.67;98.17
30730;BME280;17476;48.458;7.928;2022-09-16T00:19:49;99428.63;;;15.64;98.61
30730;BME280;17476;48.458;7.928;2022-09-16T00:22:17;99434.09;;;15.69;98.90
30730;BME280;17476;48.458;7.928;2022-09-16T00:24:43;99428.22;;;15.60;99.19
30730;BME280;17476;48.458;7.928;2022-09-16T00:27:09;99429.44;;;15.64;98.97
30730;BME280;17476;48.458;7.928;2022-09-16T00:29:35;99421.34;;;15.59;98.36
30730;BME280;17476;48.458;7.928;2022-09-16T00:32:01;99427.00;;;15.56;99.03
30730;BME280;17476;48.458;7.928;2022-09-16T00:34:27;99423.34;;;15.57;99.14
30730;BME280;17476;48.458;7.928;2022-09-16T00:36:53;99427.63;;;15.58;99.59
30730;BME280;17476;48.458;7.928;2022-09-16T00:39:19;99428.22;;;15.60;99.52
30730;BME280;17476;48.458;7.928;2022-09-16T00:41:44;99436.50;;;15.77;98.51
30730;BME280;17476;48.458;7.928;2022-09-16T00:45:01;99436.53;;;15.57;98.51
30730;BME280;17476;48.458;7.928;2022-09-16T00:47:38;99428.63;;;15.57;98.64
30730;BME280;17476;48.458;7.928;2022-09-16T00:50:18;99431.25;;;15.57;98.95
30730;BME280;17476;48.458;7.928;2022-09-16T00:52:45;99426.81;;;15.51;99.12
30730;BME280;17476;48.458;7.928;2022-09-16T00:55:17;99423.41;;;15.44;99.32
30730;BME280;17476;48.458;7.928;2022-09-16T00:57:44;99417.69;;;15.53;100.00
30730;BME280;17476;48.458;7.928;2022-09-16T01:00:11;99425.97;;;15.70;99.68
30730;BME280;17476;48.458;7.928;2022-09-16T01:02:40;99423.53;;;15.75;98.54
30730;BME280;17476;48.458;7.928;2022-09-16T01:05:20;99425.81;;;15.65;97.83
30730;BME280;17476;48.458;7.928;2022-09-16T01:07:48;99418.31;;;15.49;99.43
30730;BME280;17476;48.458;7.928;2022-09-16T01:10:33;99419.94;;;15.50;98.88
30730;BME280;17476;48.458;7.928;2022-09-16T01:13:05;99422.56;;;15.50;99.96
30730;BME280;17476;48.458;7.928;2022-09-16T01:16:09;99425.41;;;15.55;99.41
30730;BME280;17476;48.458;7.928;2022-09-16T01:22:17;99421.81;;;15.29;98.43
30730;BME280;17476;48.458;7.928;2022-09-16T01:24:59;99421.81;;;15.29;99.59
30730;BME280;17476;48.458;7.928;2022-09-16T01:32:52;99407.59;;;15.44;99.41
30730;BME280;17476;48.458;7.928;2022-09-16T01:43:40;99407.47;;;15.19;100.00
30730;BME280;17476;48.458;7.928;2022-09-16T01:52:21;99414.41;;;15.00;100.00
30730;BME280;17476;48.458;7.928;2022-09-16T01:54:58;99410.13;;;15.06;100.00
30730;BME280;17476;48.458;7.928;2022-09-16T02:00:12;99410.69;;;15.27;100.00
30730;BME280;17476;48.458;7.928;2022-09-16T02:02:46;99405.56;;;15.46;100.00
30730;BME280;17476;48.458;7.928;2022-09-16T02:05:28;99399.28;;;15.47;99.48
30730;BME280;17476;48.458;7.928;2022-09-16T02:08:09;99406.97;;;15.48;100.00
30730;BME280;17476;48.458;7.928;2022-09-16T02:10:44;99415.50;;;15.44;98.50
30730;BME280;17476;48.458;7.928;2022-09-16T02:13:36;99408.66;;;15.29;100.00
30730;BME280;17476;48.458;7.928;2022-09-16T02:16:09;99410.25;;;15.37;100.00
30730;BME280;17476;48.458;7.928;2022-09-16T02:18:40;99411.66;;;15.46;100.00
30730;BME280;17476;48.458;7.928;2022-09-16T02:21:12;99410.03;;;15.45;99.47
30730;BME280;17476;48.458;7.928;2022-09-16T02:23:47;99399.25;;;15.53;99.91
30730;BME280;17476;48.458;7.928;2022-09-16T02:26:20;99404.13;;;15.50;98.65
30730;BME280;17476;48.458;7.928;2022-09-16T02:28:48;99400.09;;;15.47;97.20
30730;BME280;17476;48.458;7.928;2022-09-16T02:31:21;99398.66;;;15.51;99.40
30730;BME280;17476;48.458;7.928;2022-09-16T02:34:04;99393.00;;;15.48;99.71
30730;BME280;17476;48.458;7.928;2022-09-16T02:36:38;99401.69;;;15.55;100.00
30730;BME280;17476;48.458;7.928;2022-09-16T02:39:09;99395.00;;;15.52;99.81
30730;BME280;17476;48.458;7.928;2022-09-16T02:41:40;99395.66;;;15.41;98.69
30730;BME280;17476;48.458;7.928;2022-09-16T02:44:07;99388.75;;;15.47;100.00
30730;BME280;17476;48.458;7.928;2022-09-16T02:46:58;99392.38;;;15.52;99.20
30730;BME280;17476;48.458;7.928;2022-09-16T02:55:14;99396.19;;;15.63;98.34
30730;BME280;17476;48.458;7.928;2022-09-16T02:57:44;99388.28;;;15.63;97.78
30730;BME280;17476;48.458;7.928;2022-09-16T03:00:11;99386.28;;;15.65;95.85
30730;BME280;17476;48.458;7.928;2022-09-16T03:02:37;99389.31;;;15.55;98.22
30730;BME280;17476;48.458;7.928;2022-09-16T03:05:04;99387.69;;;15.54;97.67
30730;BME280;17476;48.458;7.928;2022-09-16T03:07:30;99388.75;;;15.47;98.25
30730;BME280;17476;48.458;7.928;2022-09-16T03:09:56;99383.09;;;15.37;97.10
30730;BME280;17476;48.458;7.928;2022-09-16T03:21:15;99380.41;;;15.50;97.98
30730;BME280;17476;48.458;7.928;2022-09-16T03:24:24;99374.31;;;15.49;98.51
30730;BME280;17476;48.458;7.928;2022-09-16T03:27:03;99377.41;;;15.46;98.40
30730;BME280;17476;48.458;7.928;2022-09-16T03:29:56;99377.19;;;15.48;98.72
30730;BME280;17476;48.458;7.928;2022-09-16T03:32:56;99366.03;;;15.46;99.54
30730;BME280;17476;48.458;7.928;2022-09-16T03:35:32;99364.78;;;15.55;99.31
30730;BME280;17476;48.458;7.928;2022-09-16T03:38:00;99360.16;;;15.44;98.15
30730;BME280;17476;48.458;7.928;2022-09-16T03:40:28;99361.97;;;15.50;98.75
30730;BME280;17476;48.458;7.928;2022-09-16T03:42:57;99365.63;;;15.49;99.01
30730;BME280;17476;48.458;7.928;2022-09-16T03:45:23;99361.56;;;15.53;99.24
30730;BME280;17476;48.458;7.928;2022-09-16T03:47:51;99356.28;;;15.53;99.18
30730;BME280;17476;48.458;7.928;2022-09-16T03:50:18;99351.78;;;15.60;99.19
30730;BME280;17476;48.458;7.928;2022-09-16T03:52:45;99349.41;;;15.52;98.30
30730;BME280;17476;48.458;7.928;2022-09-16T03:55:11;99358.09;;;15.59;98.29
30730;BME280;17476;48.458;7.928;2022-09-16T03:57:38;99357.28;;;15.65;98.85
30730;BME280;17476;48.458;7.928;2022-09-16T04:00:06;99371.03;;;15.61;97.38
30730;BME280;17476;48.458;7.928;2022-09-16T04:02:32;99367.88;;;15.45;97.58
30730;BME280;17476;48.458;7.928;2022-09-16T04:04:58;99361.00;;;15.38;97.65
30730;BME280;17476;48.458;7.928;2022-09-16T04:07:24;99361.63;;;15.33;97.70
30730;BME280;17476;48.458;7.928;2022-09-16T04:09:50;99364.66;;;15.30;98.60
30730;BME280;17476;48.458;7.928;2022-09-16T04:12:19;99369.94;;;15.23;99.18
30730;BME280;17476;48.458;7.928;2022-09-16T04:14:45;99368.78;;;15.13;100.00
30730;BME280;17476;48.458;7.928;2022-09-16T04:17:10;99360.19;;;15.30;100.00
30730;BME280;17476;48.458;7.928;2022-09-16T04:19:37;99358.97;;;15.40;99.60
30730;BME280;17476;48.458;7.928;2022-09-16T04:22:02;99355.06;;;15.49;100.00
30730;BME280;17476;48.458;7.928;2022-09-16T04:24:28;99357.88;;;15.61;99.11
30730;BME280;17476;48.458;7.928;2022-09-16T04:26:54;99359.91;;;15.59;98.84
30730;BME280;17476;48.458;7.928;2022-09-16T04:29:20;99361.53;;;15.66;99.06
30730;BME280;17476;48.458;7.928;2022-09-16T04:31:46;99356.41;;;15.71;98.95
30730;BME280;17476;48.458;7.928;2022-09-16T04:34:12;99356.59;;;15.76;98.91
30730;BME280;17476;48.458;7.928;2022-09-16T04:36:38;99354.72;;;15.83;98.58
30730;BME280;17476;48.458;7.928;2022-09-16T04:39:04;99359.94;;;15.90;98.13
30730;BME280;17476;48.458;7.928;2022-09-16T04:41:30;99359.72;;;15.92;97.73
30730;BME280;17476;48.458;7.928;2022-09-16T04:43:58;99354.84;;;15.95;98.16
30730;BME280;17476;48.458;7.928;2022-09-16T04:46:27;99360.53;;;15.99;97.95
30730;BME280;17476;48.458;7.928;2022-09-16T04:48:54;99365.38;;;16.02;98.20
30730;BME280;17476;48.458;7.928;2022-09-16T04:51:22;99375.47;;;16.05;97.83
30730;BME280;17476;48.458;7.928;2022-09-16T04:53:48;99372.44;;;16.08;97.72
30730;BME280;17476;48.458;7.928;2022-09-16T04:56:20;99371.41;;;16.09;97.50
30730;BME280;17476;48.458;7.928;2022-09-16T04:58:53;99374.25;;;16.07;97.87
30730;BME280;17476;48.458;7.928;2022-09-16T05:01:32;99366.13;;;16.09;97.71
30730;BME280;17476;48.458;7.928;2022-09-16T05:04:01;99369.97;;;16.13;97.71
30730;BME280;17476;48.458;7.928;2022-09-16T05:06:39;99376.41;;;16.17;97.54
30730;BME280;17476;48.458;7.928;2022-09-16T05:09:06;99373.94;;;16.22;97.62
30730;BME280;17476;48.458;7.928;2022-09-16T05:11:35;99370.28;;;16.23;97.37
30730;BME280;17476;48.458;7.928;2022-09-16T05:14:06;99362.97;;;16.25;97.54
30730;BME280;17476;48.458;7.928;2022-09-16T05:16:32;99369.88;;;16.26;97.53
30730;BME280;17476;48.458;7.928;2022-09-16T05:19:00;99376.75;;;16.27;97.42
30730;BME280;17476;48.458;7.928;2022-09-16T05:21:30;99381.59;;;16.30;97.35
30730;BME280;17476;48.458;7.928;2022-09-16T05:24:00;99378.16;;;16.30;97.43
30730;BME280;17476;48.458;7.928;2022-09-16T05:26:30;99376.53;;;16.29;97.30
30730;BME280;17476;48.458;7.928;2022-09-16T05:29:00;99378.78;;;16.25;97.32
30730;BME280;17476;48.458;7.928;2022-09-16T05:31:29;99374.13;;;16.27;97.44
30730;BME280;17476;48.458;7.928;2022-09-16T05:36:33;99375.75;;;16.28;97.26
30730;BME280;17476;48.458;7.928;2022-09-16T05:39:00;99379.63;;;16.26;97.00
30730;BME280;17476;48.458;7.928;2022-09-16T05:41:26;99381.25;;;16.27;97.27
30730;BME280;17476;48.458;7.928;2022-09-16T05:43:52;99390.81;;;16.21;96.18
30730;BME280;17476;48.458;7.928;2022-09-16T05:46:21;99384.22;;;16.05;95.97
30730;BME280;17476;48.458;7.928;2022-09-16T05:48:47;99384.84;;;16.01;96.69
30730;BME280;17476;48.458;7.928;2022-09-16T05:51:17;99391.34;;;15.98;95.72
30730;BME280;17476;48.458;7.928;2022-09-16T05:53:44;99387.75;;;15.93;96.95
30730;BME280;17476;48.458;7.928;2022-09-16T05:56:20;99398.47;;;15.91;97.14
30730;BME280;17476;48.458;7.928;2022-09-16T05:58:46;99398.03;;;16.01;94.77
30730;BME280;17476;48.458;7.928;2022-09-16T06:01:16;99403.78;;;15.84;94.66
30730;BME280;17476;48.458;7.928;2022-09-16T06:03:44;99406.69;;;15.76;97.17
30730;BME280;17476;48.458;7.928;2022-09-16T06:06:38;99404.47;;;15.73;97.01
30730;BME280;17476;48.458;7.928;2022-09-16T06:09:17;99416.00;;;15.79;96.13
30730;BME280;17476;48.458;7.928;2022-09-16T06:11:47;99414.84;;;15.68;96.77
30730;BME280;17476;48.458;7.928;2022-09-16T06:14:14;99415.25;;;15.65;97.36
30730;BME280;17476;48.458;7.928;2022-09-16T06:16:41;99420.53;;;15.65;97.43
30730;BME280;17476;48.458;7.928;2022-09-16T06:19:12;99421.72;;;15.69;96.81
30730;BME280;17476;48.458;7.928;2022-09-16T06:21:39;99416.25;;;15.64;93.30
30730;BME280;17476;48.458;7.928;2022-09-16T06:24:06;99420.94;;;15.55;94.37
30730;BME280;17476;48.458;7.928;2022-09-16T06:26:35;99423.22;;;15.45;95.48
30730;BME280;17476;48.458;7.928;2022-09-16T06:29:01;99423.81;;;15.47;94.80
30730;BME280;17476;48.458;7.928;2022-09-16T06:31:28;99423.03;;;15.40;95.39
30730;BME280;17476;48.458;7.928;2022-09-16T06:33:54;99427.88;;;15.37;95.79
30730;BME280;17476;48.458;7.928;2022-09-16T06:36:28;99435.19;;;15.35;96.02
30730;BME280;17476;48.458;7.928;2022-09-16T06:38:55;99429.13;;;15.34;96.75
30730;BME280;17476;48.458;7.928;2022-09-16T06:41:21;99438.22;;;15.38;97.86
30730;BME280;17476;48.458;7.928;2022-09-16T06:43:48;99434.75;;;15.44;97.54
30730;BME280;17476;48.458;7.928;2022-09-16T06:46:22;99443.28;;;15.46;96.41
30730;BME280;17476;48.458;7.928;2022-09-16T06:48:51;99442.47;;;15.46;96.79
30730;BME280;17476;48.458;7.928;2022-09-16T06:51:24;99445.69;;;15.48;97.41
30730;BME280;17476;48.458;7.928;2022-09-16T06:53:53;99460.69;;;15.54;96.62
30730;BME280;17476;48.458;7.928;2022-09-16T06:56:21;99454.63;;;15.47;96.89
30730;BME280;17476;48.458;7.928;2022-09-16T06:58:49;99456.22;;;15.48;97.87
30730;BME280;17476;48.458;7.928;2022-09-16T07:01:26;99461.50;;;15.48;96.90
30730;BME280;17476;48.458;7.928;2022-09-16T07:03:54;99457.84;;;15.49;98.36
30730;BME280;17476;48.458;7.928;2022-09-16T07:06:22;99466.75;;;15.54;97.91
30730;BME280;17476;48.458;7.928;2022-09-16T07:08:49;99466.16;;;15.59;98.47
30730;BME280;17476;48.458;7.928;2022-09-16T07:11:20;99459.28;;;15.65;97.63
30730;BME280;17476;48.458;7.928;2022-09-16T07:13:50;99460.25;;;15.64;97.50
30730;BME280;17476;48.458;7.928;2022-09-16T07:16:19;99464.31;;;15.66;96.83
30730;BME280;17476;48.458;7.928;2022-09-16T07:18:46;99463.91;;;15.69;97.28
30730;BME280;17476;48.458;7.928;2022-09-16T07:21:18;99455.38;;;15.74;96.74
30730;BME280;17476;48.458;7.928;2022-09-16T07:23:46;99458.59;;;15.76;97.27
30730;BME280;17476;48.458;7.928;2022-09-16T07:26:18;99468.09;;;15.83;97.41
30730;BME280;17476;48.458;7.928;2022-09-16T07:28:46;99465.84;;;15.94;97.53
30730;BME280;17476;48.458;7.928;2022-09-16T07:31:16;99471.31;;;15.99;97.63
30730;BME280;17476;48.458;7.928;2022-09-16T07:33:46;99472.66;;;16.08;97.17
30730;BME280;17476;48.458;7.928;2022-09-16T07:36:16;99485.03;;;16.14;96.82
30730;BME280;17476;48.458;7.928;2022-09-16T07:38:43;99482.97;;;16.16;96.97
30730;BME280;17476;48.458;7.928;2022-09-16T07:41:15;99486.38;;;16.23;96.73
30730;BME280;17476;48.458;7.928;2022-09-16T07:43:42;99483.50;;;16.31;95.03
30730;BME280;17476;48.458;7.928;2022-09-16T07:46:12;99484.50;;;16.30;95.45
30730;BME280;17476;48.458;7.928;2022-09-16T07:48:39;99485.94;;;16.33;94.73
30730;BME280;17476;48.458;7.928;2022-09-16T07:51:12;99491.19;;;16.40;93.21
30730;BME280;17476;48.458;7.928;2022-09-16T07:53:38;99494.84;;;16.32;90.30
30730;BME280;17476;48.458;7.928;2022-09-16T07:56:23;99502.03;;;16.18;93.79
30730;BME280;17476;48.458;7.928;2022-09-16T07:58:52;99501.44;;;16.16;94.97
30730;BME280;17476;48.458;7.928;2022-09-16T08:01:19;99499.38;;;16.18;95.27
30730;BME280;17476;48.458;7.928;2022-09-16T08:03:46;99499.78;;;16.22;95.30
30730;BME280;17476;48.458;7.928;2022-09-16T08:06:19;99504.84;;;16.23;95.83
30730;BME280;17476;48.458;7.928;2022-09-16T08:08:46;99497.34;;;16.27;95.82
30730;BME280;17476;48.458;7.928;2022-09-16T08:11:14;99501.16;;;16.31;95.67
30730;BME280;17476;48.458;7.928;2022-09-16T08:13:41;99490.78;;;16.36;95.47
30730;BME280;17476;48.458;7.928;2022-09-16T08:16:12;99479.75;;;16.46;95.96
30730;BME280;17476;48.458;7.928;2022-09-16T08:18:38;99485.75;;;16.59;96.07
30730;BME280;17476;48.458;7.928;2022-09-16T08:21:11;99479.44;;;16.67;95.38
30730;BME280;17476;48.458;7.928;2022-09-16T08:23:38;99489.31;;;16.78;95.18
30730;BME280;17476;48.458;7.928;2022-09-16T08:26:05;99487.22;;;16.87;94.73
30730;BME280;17476;48.458;7.928;2022-09-16T08:28:33;99486.72;;;16.97;94.61
30730;BME280;17476;48.458;7.928;2022-09-16T08:31:02;99495.41;;;17.04;93.61
30730;BME280;17476;48.458;7.928;2022-09-16T08:33:28;99499.88;;;17.03;93.04
30730;BME280;17476;48.458;7.928;2022-09-16T08:36:01;99498.81;;;17.11;93.36
30730;BME280;17476;48.458;7.928;2022-09-16T08:38:28;99506.03;;;17.22;93.53
30730;BME280;17476;48.458;7.928;2022-09-16T08:47:54;99504.00;;;17.42;93.28
30730;BME280;17476;48.458;7.928;2022-09-16T08:50:31;99506.50;;;17.56;93.35
30730;BME280;17476;48.458;7.928;2022-09-16T08:53:03;99507.19;;;17.69;92.66
30730;BME280;17476;48.458;7.928;2022-09-16T08:55:41;99512.69;;;17.86;92.92
30730;BME280;17476;48.458;7.928;2022-09-16T08:58:28;99511.31;;;18.02;91.97
30730;BME280;17476;48.458;7.928;2022-09-16T09:00:59;99505.25;;;18.13;92.41
30730;BME280;17476;48.458;7.928;2022-09-16T09:03:39;99505.75;;;18.22;89.69
30730;BME280;17476;48.458;7.928;2022-09-16T09:09:00;99516.28;;;18.40;90.29
30730;BME280;17476;48.458;7.928;2022-09-16T09:11:47;99528.63;;;18.46;89.37
30730;BME280;17476;48.458;7.928;2022-09-16T09:15:02;99519.66;;;18.47;89.63
30730;BME280;17476;48.458;7.928;2022-09-16T09:26:48;99529.91;;;18.55;88.29
30730;BME280;17476;48.458;7.928;2022-09-16T09:29:26;99522.59;;;18.58;88.13
30730;BME280;17476;48.458;7.928;2022-09-16T09:32:13;99523.81;;;18.43;85.61
30730;BME280;17476;48.458;7.928;2022-09-16T09:35:05;99514.22;;;18.42;87.86
30730;BME280;17476;48.458;7.928;2022-09-16T09:38:05;99519.22;;;18.50;88.88
30730;BME280;17476;48.458;7.928;2022-09-16T09:43:33;99511.50;;;18.79;87.42
30730;BME280;17476;48.458;7.928;2022-09-16T09:46:16;99515.78;;;18.92;87.29
30730;BME280;17476;48.458;7.928;2022-09-16T09:51:41;99520.38;;;18.96;83.56
30730;BME280;17476;48.458;7.928;2022-09-16T09:54:29;99529.16;;;18.97;81.76
30730;BME280;17476;48.458;7.928;2022-09-16T09:57:40;99524.31;;;19.05;85.33
30730;BME280;17476;48.458;7.928;2022-09-16T10:00:17;99530.66;;;19.16;85.31
30730;BME280;17476;48.458;7.928;2022-09-16T10:02:45;99528.25;;;19.26;84.14
30730;BME280;17476;48.458;7.928;2022-09-16T10:05:24;99529.19;;;19.32;81.57
30730;BME280;17476;48.458;7.928;2022-09-16T10:07:57;99527.78;;;19.29;83.99
30730;BME280;17476;48.458;7.928;2022-09-16T10:10:26;99531.47;;;19.40;84.48
30730;BME280;17476;48.458;7.928;2022-09-16T10:12:54;99525.47;;;19.56;84.79
30730;BME280;17476;48.458;7.928;2022-09-16T10:15:23;99523.16;;;19.48;81.30
30730;BME280;17476;48.458;7.928;2022-09-16T10:17:52;99520.28;;;19.50;82.34
30730;BME280;17476;48.458;7.928;2022-09-16T10:20:34;99523.44;;;19.58;82.09
30730;BME280;17476;48.458;7.928;2022-09-16T10:23:14;99522.03;;;19.68;82.15
30730;BME280;17476;48.458;7.928;2022-09-16T10:25:42;99517.53;;;19.68;82.54
30730;BME280;17476;48.458;7.928;2022-09-16T10:28:22;99519.94;;;19.70;81.82
30730;BME280;17476;48.458;7.928;2022-09-16T10:30:55;99524.94;;;19.66;81.54
30730;BME280;17476;48.458;7.928;2022-09-16T10:33:33;99526.97;;;19.64;81.72
30730;BME280;17476;48.458;7.928;2022-09-16T10:36:06;99515.31;;;19.77;82.80
30730;BME280;17476;48.458;7.928;2022-09-16T10:38:50;99513.06;;;19.97;80.64
30730;BME280;17476;48.458;7.928;2022-09-16T10:41:41;99510.16;;;20.10;79.02
30730;BME280;17476;48.458;7.928;2022-09-16T10:44:20;99513.78;;;20.33;81.33
30730;BME280;17476;48.458;7.928;2022-09-16T10:46:55;99511.03;;;20.56;79.87
30730;BME280;17476;48.458;7.928;2022-09-16T10:49:47;99509.03;;;20.63;74.62
30730;BME280;17476;48.458;7.928;2022-09-16T10:52:20;99512.13;;;20.89;77.89
30730;BME280;17476;48.458;7.928;2022-09-16T10:54:47;99508.94;;;21.25;80.15
30730;BME280;17476;48.458;7.928;2022-09-16T10:57:28;99504.78;;;21.68;81.82
30730;BME280;17476;48.458;7.928;2022-09-16T11:00:18;99502.53;;;22.04;74.56
30730;BME280;17476;48.458;7.928;2022-09-16T11:05:42;99497.47;;;22.83;69.09
30730;BME280;17476;48.458;7.928;2022-09-16T11:09:13;99497.00;;;23.29;65.25
30730;BME280;17476;48.458;7.928;2022-09-16T11:26:04;99515.91;;;23.22;58.88
30730;BME280;17476;48.458;7.928;2022-09-16T11:29:32;99512.41;;;23.16;56.68
30730;BME280;17476;48.458;7.928;2022-09-16T11:44:29;99505.25;;;24.37;60.74
30730;BME280;17476;48.458;7.928;2022-09-16T11:54:04;99500.19;;;25.22;56.18
30730;BME280;17476;48.458;7.928;2022-09-16T11:56:35;99502.63;;;26.04;59.19
30730;BME280;17476;48.458;7.928;2022-09-16T11:59:24;99497.97;;;26.20;54.15
30730;BME280;17476;48.458;7.928;2022-09-16T12:07:36;99497.47;;;25.43;51.15
30730;BME280;17476;48.458;7.928;2022-09-16T12:10:21;99506.59;;;25.31;51.26
30730;BME280;17476;48.458;7.928;2022-09-16T12:13:03;99498.84;;;25.20;54.64
30730;BME280;17476;48.458;7.928;2022-09-16T12:15:39;99497.75;;;25.41;49.48
30730;BME280;17476;48.458;7.928;2022-09-16T12:18:26;99493.75;;;25.28;46.72
30730;BME280;17476;48.458;7.928;2022-09-16T12:21:30;99501.00;;;24.97;49.25
30730;BME280;17476;48.458;7.928;2022-09-16T12:24:48;99498.88;;;24.54;54.66
30730;BME280;17476;48.458;7.928;2022-09-16T12:30:17;99495.03;;;24.29;52.94
30730;BME280;17476;48.458;7.928;2022-09-16T12:33:14;99489.47;;;24.36;44.96
30730;BME280;17476;48.458;7.928;2022-09-16T12:35:57;99487.09;;;24.39;47.66
30730;BME280;17476;48.458;7.928;2022-09-16T12:38:24;99499.09;;;24.37;49.10
30730;BME280;17476;48.458;7.928;2022-09-16T13:01:23;99473.16;;;23.59;51.26
30730;BME280;17476;48.458;7.928;2022-09-16T13:03:58;99481.41;;;23.53;49.56
30730;BME280;17476;48.458;7.928;2022-09-16T13:06:31;99480.72;;;23.25;45.25
30730;BME280;17476;48.458;7.928;2022-09-16T13:09:24;99482.13;;;22.96;46.12
30730;BME280;17476;48.458;7.928;2022-09-16T13:11:55;99482.19;;;22.74;47.09
30730;BME280;17476;48.458;7.928;2022-09-16T13:14:26;99481.53;;;22.56;47.62
30730;BME280;17476;48.458;7.928;2022-09-16T13:16:57;99467.97;;;22.31;48.68
30730;BME280;17476;48.458;7.928;2022-09-16T13:27:39;99486.53;;;22.53;48.18
30730;BME280;17476;48.458;7.928;2022-09-16T13:30:36;99486.53;;;22.53;44.84
30730;BME280;17476;48.458;7.928;2022-09-16T13:35:41;99479.22;;;22.11;45.55
30730;BME280;17476;48.458;7.928;2022-09-16T13:38:38;99478.41;;;22.11;50.95
30730;BME280;17476;48.458;7.928;2022-09-16T13:41:05;99480.56;;;22.14;46.46
30730;BME280;17476;48.458;7.928;2022-09-16T13:46:24;99480.13;;;21.78;44.25
30730;BME280;17476;48.458;7.928;2022-09-16T13:51:44;99468.69;;;21.56;48.18
30730;BME280;17476;48.458;7.928;2022-09-16T13:54:33;99482.47;;;21.52;48.96
30730;BME280;17476;48.458;7.928;2022-09-16T14:00:14;99469.06;;;21.64;48.55
30730;BME280;17476;48.458;7.928;2022-09-16T14:06:14;99468.78;;;21.88;51.67
30730;BME280;17476;48.458;7.928;2022-09-16T14:09:07;99466.88;;;22.05;49.50
30730;BME280;17476;48.458;7.928;2022-09-16T14:11:50;99471.94;;;22.06;47.01
30730;BME280;17476;48.458;7.928;2022-09-16T14:14:21;99462.69;;;22.09;44.55
30730;BME280;17476;48.458;7.928;2022-09-16T14:16:49;99476.63;;;22.21;46.39
30730;BME280;17476;48.458;7.928;2022-09-16T14:24:38;99471.66;;;21.59;44.96
30730;BME280;17476;48.458;7.928;2022-09-16T14:27:26;99473.63;;;21.47;48.55
30730;BME280;17476;48.458;7.928;2022-09-16T14:30:00;99483.88;;;21.38;47.61
30730;BME280;17476;48.458;7.928;2022-09-16T14:32:30;99476.34;;;20.96;46.48
30730;BME280;17476;48.458;7.928;2022-09-16T14:35:23;99475.16;;;20.42;47.30
30730;BME280;17476;48.458;7.928;2022-09-16T14:37:57;99476.81;;;20.31;49.57
30730;BME280;17476;48.458;7.928;2022-09-16T14:40:25;99473.69;;;20.46;51.00
30730;BME280;17476;48.458;7.928;2022-09-16T14:42:58;99465.22;;;20.49;50.72
30730;BME280;17476;48.458;7.928;2022-09-16T14:45:27;99467.66;;;20.67;51.26
30730;BME280;17476;48.458;7.928;2022-09-16T14:47:54;99458.84;;;20.50;48.66
30730;BME280;17476;48.458;7.928;2022-09-16T14:50:30;99469.38;;;20.16;47.06
30730;BME280;17476;48.458;7.928;2022-09-16T14:53:03;99465.78;;;19.94;49.45
30730;BME280;17476;48.458;7.928;2022-09-16T14:55:32;99467.53;;;19.88;48.29
30730;BME280;17476;48.458;7.928;2022-09-16T14:58:01;99468.94;;;19.79;48.39
30730;BME280;17476;48.458;7.928;2022-09-16T15:00:45;99456.06;;;19.59;49.16
30730;BME280;17476;48.458;7.928;2022-09-16T15:03:41;99457.78;;;19.54;50.12
30730;BME280;17476;48.458;7.928;2022-09-16T15:06:18;99455.84;;;19.61;51.25
30730;BME280;17476;48.458;7.928;2022-09-16T15:08:52;99451.19;;;19.68;51.00
30730;BME280;17476;48.458;7.928;2022-09-16T15:11:29;99449.09;;;19.82;53.57
30730;BME280;17476;48.458;7.928;2022-09-16T15:13:57;99448.22;;;19.53;52.27
30730;BME280;17476;48.458;7.928;2022-09-16T15:16:24;99450.88;;;19.65;52.29
30730;BME280;17476;48.458;7.928;2022-09-16T15:19:03;99447.72;;;19.56;51.55
30730;BME280;17476;48.458;7.928;2022-09-16T15:21:33;99449.84;;;19.42;50.91
30730;BME280;17476;48.458;7.928;2022-09-16T15:24:03;99450.28;;;19.51;54.66
30730;BME280;17476;48.458;7.928;2022-09-16T15:26:40;99450.28;;;19.62;52.36
30730;BME280;17476;48.458;7.928;2022-09-16T15:31:43;99444.69;;;19.87;51.65
30730;BME280;17476;48.458;7.928;2022-09-16T15:36:48;99445.09;;;19.68;50.64
30730;BME280;17476;48.458;7.928;2022-09-16T15:39:35;99442.31;;;19.62;51.87
30730;BME280;17476;48.458;7.928;2022-09-16T15:42:17;99450.06;;;19.52;51.83
30730;BME280;17476;48.458;7.928;2022-09-16T15:44:50;99448.34;;;19.46;48.72
30730;BME280;17476;48.458;7.928;2022-09-16T15:47:26;99451.19;;;19.56;53.83
30730;BME280;17476;48.458;7.928;2022-09-16T15:50:13;99452.47;;;19.54;51.60
30730;BME280;17476;48.458;7.928;2022-09-16T15:56:20;99451.56;;;19.60;49.08
30730;BME280;17476;48.458;7.928;2022-09-16T15:59:00;99458.03;;;19.52;52.91
30730;BME280;17476;48.458;7.928;2022-09-16T16:01:42;99454.47;;;19.58;51.83
30730;BME280;17476;48.458;7.928;2022-09-16T16:04:16;99451.81;;;19.47;53.91
30730;BME280;17476;48.458;7.928;2022-09-16T16:07:01;99455.56;;;19.51;53.22
30730;BME280;17476;48.458;7.928;2022-09-16T16:09:27;99448.94;;;19.25;49.95
30730;BME280;17476;48.458;7.928;2022-09-16T16:12:00;99455.97;;;19.31;55.19
30730;BME280;17476;48.458;7.928;2022-09-16T16:14:29;99459.75;;;19.35;56.95
30730;BME280;17476;48.458;7.928;2022-09-16T16:17:10;99460.72;;;19.05;51.60
30730;BME280;17476;48.458;7.928;2022-09-16T16:19:37;99465.31;;;19.10;54.05
30730;BME280;17476;48.458;7.928;2022-09-16T16:22:04;99461.03;;;19.09;54.91
30730;BME280;17476;48.458;7.928;2022-09-16T16:24:31;99462.66;;;19.10;57.96